CheckWX is a tool to help pilots better visualize weather data.  It is not intended as a substitute for an official pre-flight weather briefing.

08:47:54 UTC

KPOF METAR
Poplar Bluff Municipal Airport
Poplar Bluff, Missouri, USA
Current

55 mins ago

KPOF 220753Z AUTO 03011KT 10SM FEW120 05/01 A3018 RMK AO2 RAE06 SLP225 P0000 T00500006
Observed
Feb-22 @ 07:53 UTC
Wind
  • 030° at 11 KTS
Visibility
10 SM
Flight Rules
VFR
Cloud Levels
  • Few at 12,000' AGL
Temperature
C / 41°F
Dewpoint
C / 34°F
Humidity
76%
Altimeter
30.18" Hg
Pressure
1022.5 hPa
Current Rain
0.01"
Previous

2 hours ago

KPOF 220653Z AUTO 02010KT 10SM -RA FEW035 BKN100 OVC120 05/02 A3019 RMK AO2 RAB19 SLP225 P0000 T00500017
Observed
Feb-22 @ 06:53 UTC
Wind
  • 020° at 10 KTS
Visibility
10 SM
Flight Rules
VFR
Conditions
Light Rain
Cloud Levels
  • Few at 3,500' AGL
  • Broken at 10,000' AGL
  • Overcast at 12,000' AGL
Temperature
C / 41°F
Dewpoint
C / 36°F
Humidity
81%
Altimeter
30.19" Hg
Pressure
1022.5 hPa
Current Rain
0.01"
Previous

3 hours ago

KPOF 220553Z AUTO 03009KT 10SM BKN038 BKN110 05/01 A3021 RMK AO2 SLP233 T00500011 10061 20050 400671011 50004
Observed
Feb-22 @ 05:53 UTC
Wind
  • 030° at 9 KTS
Visibility
10 SM
Flight Rules
VFR
Cloud Levels
  • Broken at 3,800' AGL
  • Broken at 11,000' AGL
Temperature
C / 41°F
Dewpoint
C / 34°F
Humidity
76%
Altimeter
30.21" Hg
Pressure
1023.3 hPa